createdAt,value
2019-01-30T00:01:33.946Z,4.20
2019-01-30T00:02:41.747Z,4.20
2019-01-30T00:03:58.600Z,4.40
2019-01-30T00:05:15.618Z,4.20
2019-01-30T00:06:31.908Z,4.10
2019-01-30T00:07:47.962Z,4.10
2019-01-30T00:09:05.987Z,4.10
2019-01-30T00:10:22.817Z,4.10
2019-01-30T00:11:41.541Z,4.10
2019-01-30T00:12:57.957Z,4.10
2019-01-30T00:14:14.117Z,4.10
2019-01-30T00:15:30.277Z,4.00
2019-01-30T00:16:46.205Z,4.00
2019-01-30T00:18:02.468Z,4.10
2019-01-30T00:19:18.626Z,4.00
2019-01-30T00:20:35.096Z,4.00
2019-01-30T00:21:52.097Z,4.00
2019-01-30T00:23:08.458Z,4.10
2019-01-30T00:24:25.364Z,4.00
2019-01-30T00:25:41.857Z,4.00
2019-01-30T00:26:58.770Z,4.00
2019-01-30T00:28:14.881Z,4.00
2019-01-30T00:29:32.093Z,4.10
2019-01-30T00:30:48.357Z,4.00
2019-01-30T00:32:04.235Z,4.00
2019-01-30T00:33:21.613Z,4.00
2019-01-30T00:34:40.720Z,4.10
2019-01-30T00:35:57.954Z,4.10
2019-01-30T00:37:14.811Z,4.10
2019-01-30T00:38:30.793Z,4.10
2019-01-30T00:39:49.257Z,4.20
2019-01-30T00:41:05.796Z,4.20
2019-01-30T00:42:22.105Z,4.20
2019-01-30T00:43:40.373Z,4.10
2019-01-30T00:44:57.186Z,4.10
2019-01-30T00:46:14.032Z,4.10
2019-01-30T00:47:31.233Z,4.10
2019-01-30T00:48:49.454Z,4.10
2019-01-30T00:50:07.551Z,4.40
2019-01-30T00:51:23.792Z,4.00
2019-01-30T00:52:40.189Z,4.10
2019-01-30T00:53:59.901Z,4.10
2019-01-30T00:55:16.382Z,4.10
2019-01-30T00:56:32.398Z,4.10
2019-01-30T00:57:48.534Z,4.10
2019-01-30T00:59:05.257Z,4.10
2019-01-30T01:00:21.225Z,4.10
2019-01-30T01:01:37.401Z,4.10
2019-01-30T01:02:54.171Z,4.10
2019-01-30T01:04:11.008Z,4.10
2019-01-30T01:05:27.144Z,4.10
2019-01-30T01:06:43.573Z,4.10
2019-01-30T01:08:00.099Z,4.10
2019-01-30T01:09:15.216Z,4.10
2019-01-30T01:12:06.216Z,4.10
2019-01-30T01:13:23.157Z,4.30
2019-01-30T01:14:39.150Z,4.10
2019-01-30T01:15:55.811Z,4.10
2019-01-30T01:17:11.826Z,4.10
2019-01-30T01:18:27.776Z,4.10
2019-01-30T01:19:44.601Z,4.20
2019-01-30T01:21:00.927Z,4.10
2019-01-30T01:22:17.900Z,4.00
2019-01-30T01:23:33.930Z,4.10
2019-01-30T01:24:51.163Z,4.00
2019-01-30T01:26:08.100Z,4.00
2019-01-30T01:27:23.168Z,4.10
2019-01-30T01:30:13.658Z,4.00
2019-01-30T01:31:30.475Z,4.10
2019-01-30T01:32:46.934Z,4.10
2019-01-30T01:34:01.941Z,4.10
2019-01-30T01:35:25.796Z,4.10
2019-01-30T01:36:31.089Z,4.40
2019-01-30T01:37:36.131Z,4.20
2019-01-30T01:40:37.357Z,4.10
2019-01-30T01:41:53.713Z,4.10
2019-01-30T01:43:11.092Z,4.20
2019-01-30T01:44:27.819Z,4.10
2019-01-30T01:45:43.896Z,4.10
2019-01-30T01:47:00.288Z,4.10
2019-01-30T01:48:16.552Z,4.10
2019-01-30T01:49:32.494Z,4.10
2019-01-30T01:50:49.243Z,4.00
2019-01-30T01:52:05.667Z,4.10
2019-01-30T01:53:21.976Z,4.10
2019-01-30T01:54:37.941Z,4.10
2019-01-30T01:55:54.745Z,4.40
2019-01-30T01:57:11.772Z,4.30
2019-01-30T01:58:27.868Z,4.00
2019-01-30T01:59:45.211Z,4.00
2019-01-30T02:01:03.705Z,4.00
2019-01-30T02:02:20.577Z,4.10
2019-01-30T02:03:35.608Z,4.10
2019-01-30T02:04:59.895Z,4.10
2019-01-30T02:06:16.274Z,4.10
2019-01-30T02:07:33.037Z,4.00
2019-01-30T02:08:49.849Z,4.50
2019-01-30T02:10:06.675Z,4.10
2019-01-30T02:11:22.677Z,4.10
2019-01-30T02:12:38.989Z,4.10
2019-01-30T02:13:55.242Z,4.30
2019-01-30T02:15:11.759Z,4.50
2019-01-30T02:16:27.741Z,4.40
2019-01-30T02:17:43.729Z,4.00
2019-01-30T02:18:59.991Z,4.00
2019-01-30T02:20:16.067Z,4.00
2019-01-30T02:21:34.976Z,4.60
2019-01-30T02:22:51.519Z,4.10
2019-01-30T02:24:07.894Z,4.00
2019-01-30T02:25:24.256Z,4.00
2019-01-30T02:26:40.725Z,4.00
2019-01-30T02:27:57.101Z,4.00
2019-01-30T02:29:13.324Z,4.50
2019-01-30T02:30:29.351Z,4.50
2019-01-30T02:31:45.587Z,3.90
2019-01-30T02:33:04.662Z,4.20
2019-01-30T02:34:21.587Z,3.90
2019-01-30T02:35:37.926Z,4.40
2019-01-30T02:36:57.165Z,3.90
2019-01-30T02:38:12.449Z,4.20
2019-01-30T02:41:13.629Z,3.80
2019-01-30T02:42:30.911Z,4.20
2019-01-30T02:43:47.006Z,3.90
2019-01-30T02:45:03.017Z,3.80
2019-01-30T02:46:19.777Z,3.70
2019-01-30T02:47:39.049Z,3.90
2019-01-30T02:48:56.036Z,4.20
2019-01-30T02:50:12.181Z,3.80
2019-01-30T02:51:28.671Z,4.10
2019-01-30T02:52:45.204Z,3.80
2019-01-30T02:54:02.065Z,3.90
2019-01-30T02:55:18.620Z,4.30
2019-01-30T02:57:58.511Z,3.70
2019-01-30T02:59:14.804Z,4.00
2019-01-30T03:00:30.710Z,3.80
2019-01-30T03:02:22.344Z,3.80
2019-01-30T03:03:28.547Z,3.70
2019-01-30T03:04:44.346Z,3.70
2019-01-30T03:06:00.349Z,3.70
2019-01-30T03:07:17.015Z,4.10
2019-01-30T03:08:33.167Z,3.70
2019-01-30T03:09:49.377Z,3.70
2019-01-30T03:11:05.484Z,3.70
2019-01-30T03:12:23.029Z,3.70
2019-01-30T03:13:39.537Z,3.80
2019-01-30T03:14:55.546Z,4.20
2019-01-30T03:16:12.260Z,3.70
2019-01-30T03:17:28.490Z,3.70
2019-01-30T03:18:44.936Z,3.70
2019-01-30T03:20:01.199Z,3.70
2019-01-30T03:21:17.185Z,3.70
2019-01-30T03:22:33.119Z,4.10
2019-01-30T03:23:49.146Z,3.80
2019-01-30T03:25:04.947Z,3.80
2019-01-30T03:26:21.084Z,4.40
2019-01-30T03:27:37.237Z,4.00
2019-01-30T03:28:53.615Z,3.90
2019-01-30T03:30:09.482Z,3.70
2019-01-30T03:31:25.586Z,4.10
2019-01-30T03:32:41.359Z,4.00
2019-01-30T03:33:57.315Z,4.10
2019-01-30T03:35:15.476Z,3.80
2019-01-30T03:36:31.358Z,3.80
2019-01-30T03:37:47.634Z,3.80
2019-01-30T03:39:02.535Z,3.80
2019-01-30T03:40:37.959Z,3.80
2019-01-30T03:41:43.871Z,4.10
2019-01-30T03:43:00.015Z,3.80
2019-01-30T03:44:16.411Z,4.20
2019-01-30T03:45:32.510Z,3.90
2019-01-30T03:46:48.378Z,3.90
2019-01-30T03:48:04.686Z,3.90
2019-01-30T03:49:20.807Z,3.90
2019-01-30T03:50:36.803Z,3.90
2019-01-30T03:51:53.086Z,3.90
2019-01-30T03:53:09.227Z,4.00
2019-01-30T03:54:25.261Z,4.00
2019-01-30T03:55:41.218Z,4.20
2019-01-30T03:56:57.217Z,4.00
2019-01-30T03:58:13.344Z,4.00
2019-01-30T03:59:29.535Z,3.90
2019-01-30T04:00:45.583Z,4.00
2019-01-30T04:02:01.907Z,4.00
2019-01-30T04:03:18.062Z,4.00
2019-01-30T04:04:33.899Z,3.90
2019-01-30T04:05:49.939Z,4.10
2019-01-30T04:07:05.834Z,4.00
2019-01-30T04:08:22.646Z,4.00
2019-01-30T04:09:38.606Z,4.30
2019-01-30T04:10:54.931Z,4.00
2019-01-30T04:12:10.856Z,4.00
2019-01-30T04:13:27.205Z,4.00
2019-01-30T04:14:43.191Z,4.00
2019-01-30T04:15:59.083Z,4.00
2019-01-30T04:17:15.646Z,3.90
2019-01-30T04:18:31.376Z,4.10
2019-01-30T04:19:47.901Z,4.30
2019-01-30T04:21:04.499Z,4.00
2019-01-30T04:22:21.071Z,4.00
2019-01-30T04:23:37.161Z,4.00
2019-01-30T04:24:53.068Z,3.90
2019-01-30T04:26:09.342Z,4.00
2019-01-30T04:27:25.614Z,3.90
2019-01-30T04:28:41.984Z,3.90
2019-01-30T04:29:58.185Z,3.90
2019-01-30T04:31:14.594Z,4.20
2019-01-30T04:32:29.396Z,3.80
2019-01-30T04:34:07.168Z,3.80
2019-01-30T04:35:10.802Z,3.80
2019-01-30T04:36:26.590Z,3.70
2019-01-30T04:37:42.931Z,3.80
2019-01-30T04:38:59.117Z,3.80
2019-01-30T04:40:15.566Z,3.80
2019-01-30T04:41:31.825Z,3.80
2019-01-30T04:42:48.121Z,3.80
2019-01-30T04:44:04.592Z,3.80
2019-01-30T04:45:20.837Z,3.80
2019-01-30T04:46:37.018Z,3.80
2019-01-30T04:47:52.965Z,3.80
2019-01-30T04:49:09.131Z,3.80
2019-01-30T04:50:25.456Z,3.90
2019-01-30T04:51:41.629Z,3.80
2019-01-30T04:52:58.712Z,3.90
2019-01-30T04:54:14.989Z,3.90
2019-01-30T04:55:30.859Z,3.90
2019-01-30T04:56:47.103Z,3.90
2019-01-30T04:58:03.402Z,4.30
2019-01-30T04:59:20.146Z,3.80
2019-01-30T05:00:36.285Z,3.90
2019-01-30T05:01:52.514Z,3.80
2019-01-30T05:03:09.446Z,3.80
2019-01-30T05:04:26.065Z,3.80
2019-01-30T05:05:42.047Z,4.40
2019-01-30T05:06:58.372Z,3.70
2019-01-30T05:08:14.542Z,3.70
2019-01-30T05:09:30.563Z,4.20
2019-01-30T05:10:45.403Z,3.80
2019-01-30T05:12:28.097Z,3.80
2019-01-30T05:13:43.875Z,3.80
2019-01-30T05:15:00.289Z,3.80
2019-01-30T05:16:16.972Z,3.80
2019-01-30T05:17:33.747Z,3.80
2019-01-30T05:18:50.582Z,3.90
2019-01-30T05:20:09.534Z,3.80
2019-01-30T05:21:24.501Z,3.80
2019-01-30T05:23:54.506Z,3.80
2019-01-30T05:25:10.409Z,3.80
2019-01-30T05:26:30.484Z,3.70
2019-01-30T05:27:46.835Z,3.70
2019-01-30T05:29:03.643Z,3.80
2019-01-30T05:30:43.850Z,3.80
2019-01-30T05:32:01.529Z,3.80
2019-01-30T05:33:17.962Z,3.90
2019-01-30T05:34:34.042Z,3.80
2019-01-30T05:35:50.318Z,3.90
2019-01-30T05:37:07.227Z,3.80
2019-01-30T05:38:23.144Z,4.00
2019-01-30T05:39:39.102Z,3.90
2019-01-30T05:40:55.805Z,3.90
2019-01-30T05:42:11.830Z,3.80
2019-01-30T05:43:28.547Z,3.90
2019-01-30T05:44:45.393Z,3.90
2019-01-30T05:46:02.384Z,3.90
2019-01-30T05:47:19.816Z,4.20
2019-01-30T05:48:36.485Z,3.80
2019-01-30T05:49:52.953Z,4.60
2019-01-30T05:51:09.402Z,3.90
2019-01-30T05:52:25.935Z,4.00
2019-01-30T05:53:45.926Z,4.00
2019-01-30T05:55:02.418Z,3.90
2019-01-30T05:56:20.288Z,3.90
2019-01-30T05:57:36.338Z,3.90
2019-01-30T05:58:52.252Z,4.10
2019-01-30T06:00:08.583Z,4.20
2019-01-30T06:01:25.347Z,3.90
2019-01-30T06:02:41.533Z,4.30
2019-01-30T06:03:57.722Z,3.60
2019-01-30T06:05:13.635Z,3.90
2019-01-30T06:06:29.969Z,3.90
2019-01-30T06:07:45.807Z,3.90
2019-01-30T06:09:01.823Z,3.80
2019-01-30T06:10:18.610Z,4.20
2019-01-30T06:11:42.573Z,3.90
2019-01-30T06:12:58.935Z,3.90
2019-01-30T06:14:15.418Z,4.30
2019-01-30T06:15:31.376Z,3.90
2019-01-30T06:16:47.384Z,3.90
2019-01-30T06:19:26.193Z,3.90
2019-01-30T06:20:31.182Z,3.90
2019-01-30T06:21:36.013Z,3.90
2019-01-30T06:22:41.015Z,3.90
2019-01-30T06:23:45.701Z,3.90
2019-01-30T06:24:50.449Z,3.90
2019-01-30T06:25:56.205Z,3.90
2019-01-30T06:27:02.030Z,3.70
2019-01-30T06:28:44.832Z,3.90
2019-01-30T06:30:09.610Z,3.90
2019-01-30T06:31:14.684Z,3.80
2019-01-30T06:32:21.929Z,3.80
2019-01-30T06:33:27.957Z,3.90
2019-01-30T06:34:33.052Z,3.80
2019-01-30T06:35:37.734Z,3.90
2019-01-30T06:36:45.283Z,3.90
2019-01-30T06:37:50.721Z,3.90
2019-01-30T06:38:55.478Z,3.90
2019-01-30T06:40:00.193Z,3.90
2019-01-30T06:41:05.055Z,3.90
2019-01-30T06:42:09.703Z,4.00
2019-01-30T06:43:14.606Z,4.00
2019-01-30T06:44:19.597Z,4.00
2019-01-30T06:45:26.732Z,3.90
2019-01-30T06:46:31.592Z,3.90
2019-01-30T06:47:38.208Z,3.90
2019-01-30T06:48:43.332Z,3.90
2019-01-30T06:49:49.885Z,3.80
2019-01-30T06:51:25.862Z,3.90
2019-01-30T06:52:36.309Z,3.80
2019-01-30T06:53:52.393Z,3.70
2019-01-30T06:55:09.803Z,4.00
2019-01-30T06:56:25.806Z,3.60
2019-01-30T06:57:42.283Z,3.90
2019-01-30T06:58:58.482Z,3.90
2019-01-30T07:01:34.149Z,3.20
2019-01-30T07:02:52.483Z,3.20
2019-01-30T07:04:14.360Z,3.20
2019-01-30T07:05:32.828Z,3.30
2019-01-30T07:06:47.650Z,3.10
2019-01-30T07:09:39.502Z,2.90
2019-01-30T07:10:55.413Z,2.90
2019-01-30T07:12:11.636Z,3.00
2019-01-30T07:13:27.786Z,2.90
2019-01-30T07:14:43.768Z,2.80
2019-01-30T07:15:59.927Z,2.80
2019-01-30T07:17:16.050Z,3.10
2019-01-30T07:18:32.178Z,2.70
2019-01-30T07:19:48.964Z,2.70
2019-01-30T07:21:05.353Z,2.60
2019-01-30T07:22:23.219Z,2.60
2019-01-30T07:23:39.463Z,2.70
2019-01-30T07:24:58.715Z,2.60
2019-01-30T07:26:14.742Z,2.60
2019-01-30T07:27:30.596Z,2.60
2019-01-30T07:28:47.020Z,3.00
2019-01-30T07:30:04.042Z,2.60
2019-01-30T07:31:20.559Z,2.50
2019-01-30T07:32:42.273Z,2.70
2019-01-30T07:33:57.955Z,3.00
2019-01-30T07:35:16.843Z,2.60
2019-01-30T07:36:32.797Z,2.60
2019-01-30T07:37:52.267Z,2.70
2019-01-30T07:39:08.818Z,2.60
2019-01-30T07:40:27.685Z,2.60
2019-01-30T07:41:43.601Z,2.70
2019-01-30T07:43:00.272Z,2.60
2019-01-30T07:44:17.765Z,2.70
2019-01-30T07:45:36.373Z,2.60
2019-01-30T07:47:11.098Z,2.60
2019-01-30T07:48:16.049Z,2.60
2019-01-30T07:50:00.313Z,2.60
2019-01-30T07:50:56.021Z,2.60
2019-01-30T07:52:12.476Z,2.60
2019-01-30T07:53:29.194Z,2.80
2019-01-30T07:54:46.131Z,2.60
2019-01-30T07:56:02.562Z,2.60
2019-01-30T07:57:19.553Z,2.60
2019-01-30T07:58:36.354Z,3.10
2019-01-30T07:59:56.875Z,2.60
2019-01-30T08:04:24.219Z,2.90
2019-01-30T08:05:40.694Z,3.10
2019-01-30T08:06:56.774Z,2.70
2019-01-30T08:08:14.758Z,3.00
2019-01-30T08:09:32.221Z,2.90
2019-01-30T08:10:49.414Z,2.70
2019-01-30T08:11:54.501Z,3.10
2019-01-30T08:12:59.361Z,2.80
2019-01-30T08:14:07.044Z,2.70
2019-01-30T08:20:07.499Z,2.60
2019-01-30T08:21:24.468Z,2.70
2019-01-30T08:22:41.476Z,1.80
2019-01-30T08:24:00.796Z,2.70
2019-01-30T08:25:17.436Z,2.70
2019-01-30T08:26:36.765Z,2.90
2019-01-30T08:27:56.822Z,3.10
2019-01-30T08:29:18.596Z,2.80
2019-01-30T08:30:31.512Z,2.70
2019-01-30T08:31:48.351Z,2.70
2019-01-30T08:33:05.999Z,2.70
2019-01-30T08:34:23.328Z,2.70
2019-01-30T08:35:39.734Z,2.70
2019-01-30T08:36:56.100Z,2.70
2019-01-30T08:38:14.820Z,2.70
2019-01-30T08:39:33.579Z,2.80
2019-01-30T08:40:50.537Z,0.60
2019-01-30T08:42:06.553Z,2.80
2019-01-30T08:43:27.618Z,2.90
2019-01-30T08:44:47.078Z,2.90
2019-01-30T08:46:03.886Z,2.90
2019-01-30T08:47:20.727Z,3.40
2019-01-30T08:48:38.930Z,3.20
2019-01-30T08:49:55.544Z,3.20
2019-01-30T08:51:11.705Z,3.20
2019-01-30T08:52:28.072Z,2.80
2019-01-30T08:53:47.095Z,3.00
2019-01-30T08:55:03.040Z,2.90
2019-01-30T08:56:19.297Z,3.10
2019-01-30T08:57:38.783Z,3.00
2019-01-30T08:58:56.357Z,3.00
2019-01-30T09:00:12.615Z,3.00
2019-01-30T09:01:29.250Z,2.90
2019-01-30T09:02:45.675Z,3.00
2019-01-30T09:04:02.226Z,3.00
2019-01-30T09:05:18.961Z,3.30
2019-01-30T09:06:35.613Z,3.00
2019-01-30T09:08:10.850Z,3.20
2019-01-30T09:09:19.857Z,3.00
2019-01-30T09:10:37.475Z,3.00
2019-01-30T09:11:57.653Z,3.00
2019-01-30T09:13:13.082Z,3.00
2019-01-30T09:14:29.094Z,3.20
2019-01-30T09:15:45.763Z,3.30
2019-01-30T09:17:01.901Z,3.50
2019-01-30T09:18:19.183Z,3.20
2019-01-30T09:19:38.980Z,3.50
2019-01-30T09:20:55.196Z,3.20
2019-01-30T09:22:11.959Z,3.30
2019-01-30T09:23:38.854Z,3.20
2019-01-30T09:24:49.010Z,3.10
2019-01-30T09:26:05.376Z,3.30
2019-01-30T09:27:24.389Z,3.10
2019-01-30T09:28:44.360Z,1.60
2019-01-30T09:30:00.470Z,3.20
2019-01-30T09:31:17.031Z,3.20
2019-01-30T09:32:36.344Z,3.10
2019-01-30T09:33:55.195Z,3.10
2019-01-30T09:35:15.632Z,3.50
2019-01-30T09:36:33.421Z,3.20
2019-01-30T09:39:15.223Z,3.30
2019-01-30T09:40:32.999Z,3.50
2019-01-30T09:41:49.842Z,3.50
2019-01-30T09:43:26.338Z,3.60
2019-01-30T09:44:32.688Z,3.70
2019-01-30T09:45:52.537Z,3.50
2019-01-30T09:47:10.011Z,3.20
2019-01-30T09:48:26.374Z,3.20
2019-01-30T09:51:15.183Z,3.20
2019-01-30T09:52:34.387Z,3.30
2019-01-30T09:53:50.543Z,3.70
2019-01-30T09:55:06.743Z,3.60
2019-01-30T09:56:23.548Z,3.40
2019-01-30T09:57:45.567Z,3.30
2019-01-30T09:59:34.271Z,3.40
2019-01-30T10:01:07.155Z,3.30
2019-01-30T10:02:15.563Z,3.80
2019-01-30T10:03:24.281Z,3.30
2019-01-30T10:04:31.731Z,3.30
2019-01-30T10:05:37.596Z,3.30
2019-01-30T10:06:48.721Z,3.30
2019-01-30T10:07:55.336Z,3.30
2019-01-30T10:09:07.641Z,3.30
2019-01-30T10:10:16.569Z,3.30
2019-01-30T10:11:33.182Z,3.30
2019-01-30T10:14:18.642Z,3.40
2019-01-30T10:15:36.033Z,3.40
2019-01-30T10:16:55.731Z,3.40
2019-01-30T10:18:12.262Z,3.40
2019-01-30T10:19:29.013Z,3.50
2019-01-30T10:20:47.546Z,3.70
2019-01-30T10:22:07.120Z,3.50
2019-01-30T10:23:23.578Z,3.50
2019-01-30T10:24:40.704Z,3.50
2019-01-30T10:26:01.812Z,3.60
2019-01-30T10:27:21.846Z,3.50
2019-01-30T10:28:41.119Z,3.50
2019-01-30T10:29:58.970Z,3.70
2019-01-30T10:31:15.329Z,3.50
2019-01-30T10:32:32.456Z,3.50
2019-01-30T10:34:08.251Z,3.50
2019-01-30T10:35:16.758Z,3.40
2019-01-30T10:36:33.704Z,3.40
2019-01-30T10:37:52.415Z,3.60
2019-01-30T10:39:09.662Z,3.30
2019-01-30T10:40:27.331Z,3.30
2019-01-30T10:42:16.577Z,3.30
2019-01-30T10:43:28.261Z,3.30
2019-01-30T10:44:44.232Z,3.30
2019-01-30T10:46:05.881Z,3.40
2019-01-30T10:50:20.635Z,3.20
2019-01-30T10:51:37.242Z,3.20
2019-01-30T10:53:10.899Z,3.20
2019-01-30T10:54:16.925Z,3.20
2019-01-30T10:55:33.850Z,3.20
2019-01-30T10:58:04.734Z,3.20
2019-01-30T10:59:21.709Z,3.10
2019-01-30T11:00:41.006Z,3.30
2019-01-30T11:01:57.488Z,3.20
2019-01-30T11:03:14.502Z,3.20
2019-01-30T11:04:26.628Z,3.20
2019-01-30T11:05:36.593Z,3.10
2019-01-30T11:06:41.287Z,3.00
2019-01-30T11:07:46.287Z,3.00
2019-01-30T11:09:22.049Z,3.00
2019-01-30T11:10:20.847Z,3.00
2019-01-30T11:11:25.478Z,3.00
2019-01-30T11:12:31.212Z,3.00
2019-01-30T11:13:36.108Z,3.00
2019-01-30T11:15:13.174Z,3.00
2019-01-30T11:16:43.312Z,3.00
2019-01-30T11:17:47.317Z,3.00
2019-01-30T11:19:07.694Z,3.00
2019-01-30T11:20:26.195Z,2.90
2019-01-30T11:21:42.478Z,2.90
2019-01-30T11:23:01.297Z,3.00
2019-01-30T11:24:18.196Z,3.00
2019-01-30T11:25:35.845Z,3.20
2019-01-30T11:26:57.026Z,2.90
2019-01-30T11:28:13.913Z,3.30
2019-01-30T11:29:30.966Z,3.40
2019-01-30T11:32:55.575Z,2.90
2019-01-30T11:33:52.001Z,3.30
2019-01-30T11:35:10.804Z,3.00
2019-01-30T11:36:28.085Z,3.10
2019-01-30T11:37:46.104Z,3.00
2019-01-30T11:39:05.376Z,3.00
2019-01-30T11:40:32.254Z,1.90
2019-01-30T11:41:39.609Z,3.00
2019-01-30T11:42:45.743Z,3.00
2019-01-30T11:43:52.828Z,3.00
2019-01-30T11:44:58.104Z,3.00
2019-01-30T11:46:02.774Z,3.00
2019-01-30T11:47:08.166Z,3.00
2019-01-30T11:50:07.779Z,3.30
2019-01-30T11:51:25.741Z,3.10
2019-01-30T11:52:42.193Z,3.00
2019-01-30T11:54:00.342Z,3.40
2019-01-30T11:55:16.660Z,3.00
2019-01-30T11:56:36.895Z,3.00
2019-01-30T11:59:14.515Z,3.00
2019-01-30T12:02:16.890Z,3.40
2019-01-30T12:03:37.000Z,3.00
2019-01-30T12:04:57.278Z,3.00
2019-01-30T12:06:13.555Z,2.70
2019-01-30T12:07:30.365Z,3.10
2019-01-30T12:08:46.505Z,3.10
2019-01-30T12:10:05.840Z,3.10
2019-01-30T12:11:23.625Z,3.10
2019-01-30T12:12:40.579Z,3.10
2019-01-30T12:13:57.177Z,3.10
2019-01-30T12:17:16.514Z,3.10
2019-01-30T12:18:22.909Z,3.10
2019-01-30T12:19:40.992Z,3.10
2019-01-30T12:20:58.113Z,3.20
2019-01-30T12:22:14.599Z,3.20
2019-01-30T12:23:35.632Z,3.10
2019-01-30T12:24:52.175Z,3.20
2019-01-30T12:26:15.738Z,3.20
2019-01-30T12:27:21.039Z,3.20
2019-01-30T12:28:25.854Z,3.10
2019-01-30T12:29:30.826Z,3.10
2019-01-30T12:30:37.183Z,3.10
2019-01-30T12:31:49.343Z,3.10
2019-01-30T12:32:57.298Z,3.20
2019-01-30T12:34:06.740Z,3.20
2019-01-30T12:35:14.802Z,3.20
2019-01-30T12:36:22.205Z,3.20
2019-01-30T12:37:27.446Z,3.20
2019-01-30T12:38:32.330Z,3.20
2019-01-30T12:39:37.268Z,3.20
2019-01-30T12:40:48.078Z,3.20
2019-01-30T12:41:55.981Z,3.20
2019-01-30T12:43:01.166Z,3.30
2019-01-30T12:44:09.554Z,3.30
2019-01-30T12:45:23.089Z,3.30
2019-01-30T12:48:21.300Z,3.30
2019-01-30T12:49:37.773Z,3.30
2019-01-30T12:50:54.439Z,3.30
2019-01-30T12:58:40.395Z,3.50
2019-01-30T12:59:56.484Z,3.30
2019-01-30T13:01:15.892Z,3.70
2019-01-30T13:02:32.211Z,3.30
2019-01-30T13:03:48.612Z,3.70
2019-01-30T13:05:06.504Z,3.30
2019-01-30T13:06:22.315Z,3.30
2019-01-30T13:07:38.979Z,3.50
2019-01-30T13:08:56.200Z,3.30
2019-01-30T13:10:12.847Z,3.30
2019-01-30T13:11:29.170Z,3.50
2019-01-30T13:12:46.148Z,3.30
2019-01-30T13:14:02.444Z,3.30
2019-01-30T13:15:18.598Z,3.30
2019-01-30T13:16:35.178Z,3.30
2019-01-30T13:17:51.395Z,3.30
2019-01-30T13:19:07.515Z,3.20
2019-01-30T13:21:58.258Z,3.30
2019-01-30T13:23:14.811Z,3.30
2019-01-30T13:24:30.950Z,3.30
2019-01-30T13:25:47.281Z,3.30
2019-01-30T13:27:03.678Z,3.30
2019-01-30T13:28:22.678Z,4.00
2019-01-30T13:29:39.639Z,3.40
2019-01-30T13:30:56.400Z,3.80
2019-01-30T13:32:12.956Z,3.30
2019-01-30T13:33:28.895Z,3.80
2019-01-30T13:34:48.921Z,3.40
2019-01-30T13:36:06.037Z,3.30
2019-01-30T13:37:22.222Z,3.40
2019-01-30T13:38:39.097Z,3.90
2019-01-30T13:39:55.813Z,3.40
2019-01-30T13:41:12.587Z,3.70
2019-01-30T13:42:29.070Z,3.50
2019-01-30T13:45:01.795Z,3.40
2019-01-30T13:46:18.371Z,3.50
2019-01-30T13:47:34.543Z,3.40
2019-01-30T13:48:50.832Z,3.60
2019-01-30T13:50:07.361Z,3.40
2019-01-30T13:51:23.407Z,3.40
2019-01-30T13:52:39.549Z,3.70
2019-01-30T13:53:58.217Z,3.20
2019-01-30T13:55:14.321Z,3.90
2019-01-30T13:56:36.047Z,3.70
2019-01-30T13:59:26.495Z,3.70
2019-01-30T14:00:37.241Z,3.50
2019-01-30T14:01:54.571Z,3.60
2019-01-30T14:03:17.111Z,3.50
2019-01-30T14:04:34.663Z,3.50
2019-01-30T14:05:53.796Z,3.40
2019-01-30T14:07:10.324Z,3.50
2019-01-30T14:10:07.096Z,3.50
2019-01-30T14:11:25.194Z,3.50
2019-01-30T14:12:46.916Z,4.00
2019-01-30T14:14:03.486Z,3.50
2019-01-30T14:15:23.715Z,3.40
2019-01-30T14:16:40.169Z,3.30
2019-01-30T14:17:59.962Z,3.40
2019-01-30T14:19:16.797Z,3.40
2019-01-30T14:20:33.021Z,3.50
2019-01-30T14:21:48.946Z,3.20
2019-01-30T14:23:05.113Z,3.20
2019-01-30T14:24:22.191Z,3.10
2019-01-30T14:25:43.067Z,3.10
2019-01-30T14:27:18.854Z,3.00
2019-01-30T14:28:23.418Z,3.40
2019-01-30T14:29:43.006Z,2.80
2019-01-30T14:30:59.782Z,2.80
2019-01-30T14:32:19.095Z,2.90
2019-01-30T14:33:34.867Z,2.80
2019-01-30T14:34:51.569Z,2.90
2019-01-30T14:36:08.299Z,2.90
2019-01-30T14:37:24.593Z,2.90
2019-01-30T14:38:40.986Z,3.00
2019-01-30T14:39:57.200Z,3.00
2019-01-30T14:41:14.260Z,3.00
2019-01-30T14:42:30.404Z,3.00
2019-01-30T14:43:46.804Z,3.00
2019-01-30T14:47:14.243Z,3.10
2019-01-30T14:48:53.005Z,3.10
2019-01-30T14:49:56.950Z,3.10
2019-01-30T14:51:03.658Z,3.10
2019-01-30T14:52:09.534Z,3.10
2019-01-30T14:53:14.909Z,3.10
2019-01-30T14:54:39.491Z,3.10
2019-01-30T15:02:06.082Z,3.10
2019-01-30T15:03:24.183Z,3.10
2019-01-30T15:05:59.763Z,3.10
2019-01-30T15:09:09.102Z,3.40
2019-01-30T15:10:44.461Z,3.10
2019-01-30T15:12:01.431Z,3.10
2019-01-30T15:13:18.001Z,3.10
2019-01-30T15:14:34.664Z,3.10
2019-01-30T15:15:51.244Z,3.40
2019-01-30T15:17:07.473Z,3.10
2019-01-30T15:18:23.871Z,3.10
2019-01-30T15:19:40.060Z,3.80
2019-01-30T15:20:56.769Z,3.20
2019-01-30T15:22:13.469Z,3.20
2019-01-30T15:23:34.227Z,3.20
2019-01-30T15:24:54.570Z,3.20
2019-01-30T15:26:10.664Z,3.20
2019-01-30T15:27:30.167Z,3.20
2019-01-30T15:28:49.822Z,3.80
2019-01-30T15:30:09.298Z,3.00
2019-01-30T15:31:30.574Z,3.00
2019-01-30T15:32:49.227Z,3.00
2019-01-30T15:34:06.071Z,3.00
2019-01-30T15:35:33.112Z,3.00
2019-01-30T15:36:38.728Z,3.40
2019-01-30T15:37:44.063Z,3.70
2019-01-30T15:38:53.337Z,2.90
2019-01-30T15:40:32.339Z,2.90
2019-01-30T15:41:57.903Z,2.80
2019-01-30T15:43:01.700Z,2.90
2019-01-30T15:44:21.212Z,2.70
2019-01-30T15:45:37.858Z,2.90
2019-01-30T15:48:13.990Z,2.70
2019-01-30T15:49:30.646Z,2.70
2019-01-30T15:50:47.094Z,2.60
2019-01-30T15:52:04.462Z,2.60
2019-01-30T15:53:23.210Z,2.70
2019-01-30T15:54:39.872Z,3.30
2019-01-30T15:55:56.682Z,2.60
2019-01-30T15:57:12.860Z,2.70
2019-01-30T15:58:32.348Z,2.50
2019-01-30T15:59:49.351Z,2.60
2019-01-30T16:01:05.689Z,2.50
2019-01-30T16:02:22.746Z,2.60
2019-01-30T16:03:39.600Z,2.60
2019-01-30T16:04:56.440Z,2.60
2019-01-30T16:06:12.573Z,2.90
2019-01-30T16:07:29.524Z,2.60
2019-01-30T16:08:45.844Z,2.70
2019-01-30T16:10:04.107Z,2.70
2019-01-30T16:11:20.749Z,2.70
2019-01-30T16:14:20.206Z,2.80
2019-01-30T16:15:36.271Z,2.80
2019-01-30T16:16:52.441Z,2.90
2019-01-30T16:18:11.882Z,2.80
2019-01-30T16:19:29.693Z,2.90
2019-01-30T16:20:46.651Z,3.40
2019-01-30T16:22:02.974Z,3.20
2019-01-30T16:25:08.753Z,2.90
2019-01-30T16:26:19.504Z,3.00
2019-01-30T16:27:35.704Z,3.50
2019-01-30T16:28:52.500Z,2.90
2019-01-30T16:30:08.639Z,2.70
2019-01-30T16:31:24.667Z,2.70
2019-01-30T16:32:41.106Z,2.60
2019-01-30T16:33:57.753Z,2.60
2019-01-30T16:35:14.394Z,2.70
2019-01-30T16:36:35.528Z,2.70
2019-01-30T16:37:48.991Z,2.80
2019-01-30T16:39:08.121Z,2.80
2019-01-30T16:40:25.020Z,2.70
2019-01-30T16:41:44.688Z,2.70
2019-01-30T16:43:01.626Z,2.70
2019-01-30T16:44:18.377Z,3.00
2019-01-30T16:45:34.492Z,2.80
2019-01-30T16:46:54.008Z,3.10
2019-01-30T16:48:10.252Z,2.80
2019-01-30T16:49:26.336Z,3.10
2019-01-30T16:52:36.955Z,2.90
2019-01-30T16:53:53.133Z,3.00
2019-01-30T16:55:11.820Z,2.90
2019-01-30T16:56:29.546Z,3.00
2019-01-30T16:57:46.505Z,2.90
2019-01-30T16:59:02.772Z,2.90
2019-01-30T17:00:19.895Z,2.90
2019-01-30T17:03:03.299Z,2.90
2019-01-30T17:04:20.408Z,3.40
2019-01-30T17:05:37.186Z,3.00
2019-01-30T17:06:54.337Z,3.10
2019-01-30T17:08:15.212Z,3.10
2019-01-30T17:09:29.680Z,3.10
2019-01-30T17:10:49.173Z,3.20
2019-01-30T17:12:06.936Z,3.50
2019-01-30T17:15:06.118Z,3.30
2019-01-30T17:16:42.699Z,3.50
2019-01-30T17:17:49.693Z,3.60
2019-01-30T17:19:10.336Z,3.20
2019-01-30T17:22:08.603Z,3.10
2019-01-30T17:23:25.109Z,3.00
2019-01-30T17:24:42.174Z,3.60
2019-01-30T17:25:58.850Z,2.90
2019-01-30T17:27:15.526Z,2.90
2019-01-30T17:28:35.958Z,2.90
2019-01-30T17:29:52.507Z,1.30
2019-01-30T17:31:09.386Z,3.00
2019-01-30T17:32:25.696Z,3.00
2019-01-30T17:33:42.191Z,3.00
2019-01-30T17:35:02.820Z,3.00
2019-01-30T17:36:19.711Z,3.00
2019-01-30T17:37:37.745Z,3.00
2019-01-30T17:38:54.187Z,3.10
2019-01-30T17:40:11.035Z,3.10
2019-01-30T17:41:30.411Z,3.10
2019-01-30T17:42:48.883Z,3.10
2019-01-30T17:44:12.814Z,3.20
2019-01-30T17:48:50.037Z,3.50
2019-01-30T17:52:07.276Z,3.10
2019-01-30T17:53:30.848Z,3.20
2019-01-30T17:54:35.466Z,3.20
2019-01-30T17:57:29.404Z,3.30
2019-01-30T17:58:47.780Z,3.20
2019-01-30T18:00:16.602Z,3.20
2019-01-30T18:01:35.801Z,3.20
2019-01-30T18:04:47.022Z,3.20
2019-01-30T18:06:05.790Z,3.20
2019-01-30T18:09:00.635Z,3.20
2019-01-30T18:10:50.451Z,3.20
2019-01-30T18:12:15.306Z,3.20
2019-01-30T18:13:56.784Z,3.20
2019-01-30T18:14:58.100Z,3.20
2019-01-30T18:16:37.538Z,3.20
2019-01-30T18:19:28.822Z,3.30
2019-01-30T18:20:47.260Z,3.30
2019-01-30T18:22:57.674Z,3.30
2019-01-30T18:23:31.047Z,3.30
2019-01-30T18:24:43.020Z,3.30
2019-01-30T18:25:55.773Z,3.30
2019-01-30T18:27:02.145Z,3.30
2019-01-30T18:28:13.107Z,3.20